sensor_id;sensor_type;location;lat;lon;timestamp;temperature;humidity
13458;DHT22;6801;53.018;11.560;2023-05-10T00:00:42;14.90;50.10
13458;DHT22;6801;53.018;11.560;2023-05-10T00:03:10;14.90;50.10
13458;DHT22;6801;53.018;11.560;2023-05-10T00:05:37;14.80;50.20
13458;DHT22;6801;53.018;11.560;2023-05-10T00:08:04;14.80;50.40
13458;DHT22;6801;53.018;11.560;2023-05-10T00:10:31;14.70;50.50
13458;DHT22;6801;53.018;11.560;2023-05-10T00:12:58;14.70;50.60
13458;DHT22;6801;53.018;11.560;2023-05-10T00:15:27;14.70;50.70
13458;DHT22;6801;53.018;11.560;2023-05-10T00:17:56;14.70;50.70
13458;DHT22;6801;53.018;11.560;2023-05-10T00:20:23;14.60;50.90
13458;DHT22;6801;53.018;11.560;2023-05-10T00:22:50;14.60;50.90
13458;DHT22;6801;53.018;11.560;2023-05-10T00:25:16;14.60;51.10
13458;DHT22;6801;53.018;11.560;2023-05-10T00:27:43;14.60;51.00
13458;DHT22;6801;53.018;11.560;2023-05-10T00:30:10;14.50;51.20
13458;DHT22;6801;53.018;11.560;2023-05-10T00:32:39;14.50;51.30
13458;DHT22;6801;53.018;11.560;2023-05-10T00:35:06;14.50;51.40
13458;DHT22;6801;53.018;11.560;2023-05-10T00:37:33;14.50;51.40
13458;DHT22;6801;53.018;11.560;2023-05-10T00:40:00;14.40;51.60
13458;DHT22;6801;53.018;11.560;2023-05-10T00:42:28;14.40;51.70
13458;DHT22;6801;53.018;11.560;2023-05-10T00:44:54;14.30;51.80
13458;DHT22;6801;53.018;11.560;2023-05-10T00:47:22;14.40;52.00
13458;DHT22;6801;53.018;11.560;2023-05-10T00:49:50;14.40;51.90
13458;DHT22;6801;53.018;11.560;2023-05-10T00:52:18;14.30;52.00
13458;DHT22;6801;53.018;11.560;2023-05-10T00:54:45;14.30;52.10
13458;DHT22;6801;53.018;11.560;2023-05-10T00:57:13;14.30;52.20
13458;DHT22;6801;53.018;11.560;2023-05-10T00:59:40;14.20;52.20
13458;DHT22;6801;53.018;11.560;2023-05-10T01:02:07;14.20;52.20
13458;DHT22;6801;53.018;11.560;2023-05-10T01:04:35;14.20;52.30
13458;DHT22;6801;53.018;11.560;2023-05-10T01:07:04;14.20;52.50
13458;DHT22;6801;53.018;11.560;2023-05-10T01:09:31;14.10;52.40
13458;DHT22;6801;53.018;11.560;2023-05-10T01:11:58;14.10;52.60
13458;DHT22;6801;53.018;11.560;2023-05-10T01:14:26;14.10;52.70
13458;DHT22;6801;53.018;11.560;2023-05-10T01:16:54;14.00;52.80
13458;DHT22;6801;53.018;11.560;2023-05-10T01:19:23;14.00;52.80
13458;DHT22;6801;53.018;11.560;2023-05-10T01:21:57;14.00;52.90
13458;DHT22;6801;53.018;11.560;2023-05-10T01:25:06;14.00;53.10
13458;DHT22;6801;53.018;11.560;2023-05-10T01:27:55;14.00;53.10
13458;DHT22;6801;53.018;11.560;2023-05-10T01:30:54;14.00;53.10
13458;DHT22;6801;53.018;11.560;2023-05-10T01:33:35;14.00;53.30
13458;DHT22;6801;53.018;11.560;2023-05-10T01:36:05;14.00;53.20
13458;DHT22;6801;53.018;11.560;2023-05-10T01:38:41;13.90;53.30
13458;DHT22;6801;53.018;11.560;2023-05-10T01:41:14;13.90;53.40
13458;DHT22;6801;53.018;11.560;2023-05-10T01:43:48;13.90;53.40
13458;DHT22;6801;53.018;11.560;2023-05-10T01:46:26;13.80;53.60
13458;DHT22;6801;53.018;11.560;2023-05-10T01:48:57;13.80;53.50
13458;DHT22;6801;53.018;11.560;2023-05-10T01:51:31;13.70;53.60
13458;DHT22;6801;53.018;11.560;2023-05-10T01:54:02;13.70;53.80
13458;DHT22;6801;53.018;11.560;2023-05-10T01:56:33;13.70;54.00
13458;DHT22;6801;53.018;11.560;2023-05-10T01:59:05;13.70;53.90
13458;DHT22;6801;53.018;11.560;2023-05-10T02:01:33;13.70;53.80
13458;DHT22;6801;53.018;11.560;2023-05-10T02:04:04;13.70;54.00
13458;DHT22;6801;53.018;11.560;2023-05-10T02:06:33;13.70;53.90
13458;DHT22;6801;53.018;11.560;2023-05-10T02:09:01;13.60;54.10
13458;DHT22;6801;53.018;11.560;2023-05-10T02:11:30;13.60;54.30
13458;DHT22;6801;53.018;11.560;2023-05-10T02:13:58;13.60;54.30
13458;DHT22;6801;53.018;11.560;2023-05-10T02:16:28;13.60;54.30
13458;DHT22;6801;53.018;11.560;2023-05-10T02:18:57;13.60;54.20
13458;DHT22;6801;53.018;11.560;2023-05-10T02:21:28;13.50;54.40
13458;DHT22;6801;53.018;11.560;2023-05-10T02:23:57;13.50;54.50
13458;DHT22;6801;53.018;11.560;2023-05-10T02:26:25;13.50;54.60
13458;DHT22;6801;53.018;11.560;2023-05-10T02:28:53;13.50;54.60
13458;DHT22;6801;53.018;11.560;2023-05-10T02:31:22;13.50;54.60
13458;DHT22;6801;53.018;11.560;2023-05-10T02:33:50;13.50;54.70
13458;DHT22;6801;53.018;11.560;2023-05-10T02:36:19;13.50;54.70
13458;DHT22;6801;53.018;11.560;2023-05-10T02:38:50;13.50;54.70
13458;DHT22;6801;53.018;11.560;2023-05-10T02:41:19;13.40;54.80
13458;DHT22;6801;53.018;11.560;2023-05-10T02:43:49;13.40;54.80
13458;DHT22;6801;53.018;11.560;2023-05-10T02:46:17;13.30;54.90
13458;DHT22;6801;53.018;11.560;2023-05-10T02:48:44;13.30;55.00
13458;DHT22;6801;53.018;11.560;2023-05-10T02:51:12;13.30;55.10
13458;DHT22;6801;53.018;11.560;2023-05-10T02:53:44;13.30;55.20
13458;DHT22;6801;53.018;11.560;2023-05-10T02:56:17;13.30;55.20
13458;DHT22;6801;53.018;11.560;2023-05-10T02:58:47;13.20;55.20
13458;DHT22;6801;53.018;11.560;2023-05-10T03:01:14;13.20;55.50
13458;DHT22;6801;53.018;11.560;2023-05-10T03:03:41;13.20;55.30
13458;DHT22;6801;53.018;11.560;2023-05-10T03:06:08;13.20;55.50
13458;DHT22;6801;53.018;11.560;2023-05-10T03:08:35;13.10;55.50
13458;DHT22;6801;53.018;11.560;2023-05-10T03:11:13;13.10;55.50
13458;DHT22;6801;53.018;11.560;2023-05-10T03:13:52;13.10;55.60
13458;DHT22;6801;53.018;11.560;2023-05-10T03:16:27;13.10;55.90
13458;DHT22;6801;53.018;11.560;2023-05-10T03:19:05;13.10;55.60
13458;DHT22;6801;53.018;11.560;2023-05-10T03:21:36;13.10;55.80
13458;DHT22;6801;53.018;11.560;2023-05-10T03:24:07;13.10;55.80
13458;DHT22;6801;53.018;11.560;2023-05-10T03:26:37;13.10;55.90
13458;DHT22;6801;53.018;11.560;2023-05-10T03:29:11;13.10;55.90
13458;DHT22;6801;53.018;11.560;2023-05-10T03:31:39;13.00;56.10
13458;DHT22;6801;53.018;11.560;2023-05-10T03:34:07;13.10;55.90
13458;DHT22;6801;53.018;11.560;2023-05-10T03:36:33;13.00;55.90
13458;DHT22;6801;53.018;11.560;2023-05-10T03:39:01;13.00;56.30
13458;DHT22;6801;53.018;11.560;2023-05-10T03:41:28;13.00;56.20
13458;DHT22;6801;53.018;11.560;2023-05-10T03:43:55;12.90;56.40
13458;DHT22;6801;53.018;11.560;2023-05-10T03:46:23;13.00;56.30
13458;DHT22;6801;53.018;11.560;2023-05-10T03:48:50;12.90;56.40
13458;DHT22;6801;53.018;11.560;2023-05-10T03:51:17;12.90;56.40
13458;DHT22;6801;53.018;11.560;2023-05-10T03:53:44;12.90;56.40
13458;DHT22;6801;53.018;11.560;2023-05-10T03:56:11;12.90;56.70
13458;DHT22;6801;53.018;11.560;2023-05-10T03:58:38;12.80;56.70
13458;DHT22;6801;53.018;11.560;2023-05-10T04:01:05;12.90;56.70
13458;DHT22;6801;53.018;11.560;2023-05-10T04:03:33;12.90;56.70
13458;DHT22;6801;53.018;11.560;2023-05-10T04:06:02;12.80;56.60
13458;DHT22;6801;53.018;11.560;2023-05-10T04:08:29;12.80;56.80
13458;DHT22;6801;53.018;11.560;2023-05-10T04:11:04;12.80;56.80
13458;DHT22;6801;53.018;11.560;2023-05-10T04:13:32;12.90;57.00
13458;DHT22;6801;53.018;11.560;2023-05-10T04:15:59;12.90;56.90
13458;DHT22;6801;53.018;11.560;2023-05-10T04:18:26;12.90;57.10
13458;DHT22;6801;53.018;11.560;2023-05-10T04:20:54;12.90;56.90
13458;DHT22;6801;53.018;11.560;2023-05-10T04:23:21;12.90;56.80
13458;DHT22;6801;53.018;11.560;2023-05-10T04:25:48;12.90;57.00
13458;DHT22;6801;53.018;11.560;2023-05-10T04:28:15;12.90;57.10
13458;DHT22;6801;53.018;11.560;2023-05-10T04:30:42;12.90;57.00
13458;DHT22;6801;53.018;11.560;2023-05-10T04:33:09;13.00;57.20
13458;DHT22;6801;53.018;11.560;2023-05-10T04:35:36;13.00;57.00
13458;DHT22;6801;53.018;11.560;2023-05-10T04:38:04;13.00;56.60
13458;DHT22;6801;53.018;11.560;2023-05-10T04:40:31;13.10;56.50
13458;DHT22;6801;53.018;11.560;2023-05-10T04:42:58;13.10;56.50
13458;DHT22;6801;53.018;11.560;2023-05-10T04:45:25;13.20;56.40
13458;DHT22;6801;53.018;11.560;2023-05-10T04:47:51;13.30;56.40
13458;DHT22;6801;53.018;11.560;2023-05-10T04:50:18;13.30;56.30
13458;DHT22;6801;53.018;11.560;2023-05-10T04:52:45;13.50;56.00
13458;DHT22;6801;53.018;11.560;2023-05-10T04:55:14;13.50;56.00
13458;DHT22;6801;53.018;11.560;2023-05-10T04:57:41;13.50;56.00
13458;DHT22;6801;53.018;11.560;2023-05-10T05:00:09;13.50;56.00
13458;DHT22;6801;53.018;11.560;2023-05-10T05:02:36;13.60;55.90
13458;DHT22;6801;53.018;11.560;2023-05-10T05:05:03;13.80;55.30
13458;DHT22;6801;53.018;11.560;2023-05-10T05:07:30;13.90;55.00
13458;DHT22;6801;53.018;11.560;2023-05-10T05:09:57;14.00;54.80
13458;DHT22;6801;53.018;11.560;2023-05-10T05:12:25;14.00;54.80
13458;DHT22;6801;53.018;11.560;2023-05-10T05:14:52;14.10;54.70
13458;DHT22;6801;53.018;11.560;2023-05-10T05:17:19;14.20;54.50
13458;DHT22;6801;53.018;11.560;2023-05-10T05:19:46;14.20;54.40
13458;DHT22;6801;53.018;11.560;2023-05-10T05:22:13;14.30;54.10
13458;DHT22;6801;53.018;11.560;2023-05-10T05:24:40;14.30;54.20
13458;DHT22;6801;53.018;11.560;2023-05-10T05:27:07;14.40;54.00
13458;DHT22;6801;53.018;11.560;2023-05-10T05:29:35;14.50;53.90
13458;DHT22;6801;53.018;11.560;2023-05-10T05:32:02;14.50;53.70
13458;DHT22;6801;53.018;11.560;2023-05-10T05:34:29;14.50;53.70
13458;DHT22;6801;53.018;11.560;2023-05-10T05:36:56;14.70;53.40
13458;DHT22;6801;53.018;11.560;2023-05-10T05:39:23;14.70;53.30
13458;DHT22;6801;53.018;11.560;2023-05-10T05:41:50;14.70;53.40
13458;DHT22;6801;53.018;11.560;2023-05-10T05:44:17;14.80;53.50
13458;DHT22;6801;53.018;11.560;2023-05-10T05:46:45;14.80;53.40
13458;DHT22;6801;53.018;11.560;2023-05-10T05:49:12;14.80;53.20
13458;DHT22;6801;53.018;11.560;2023-05-10T05:51:39;14.90;53.20
13458;DHT22;6801;53.018;11.560;2023-05-10T05:54:06;15.00;53.10
13458;DHT22;6801;53.018;11.560;2023-05-10T05:56:32;15.00;52.80
13458;DHT22;6801;53.018;11.560;2023-05-10T05:58:59;15.00;52.90
13458;DHT22;6801;53.018;11.560;2023-05-10T06:01:26;15.00;52.90
13458;DHT22;6801;53.018;11.560;2023-05-10T06:03:55;15.10;52.60
13458;DHT22;6801;53.018;11.560;2023-05-10T06:06:22;15.20;52.50
13458;DHT22;6801;53.018;11.560;2023-05-10T06:08:48;15.20;52.60
13458;DHT22;6801;53.018;11.560;2023-05-10T06:11:15;15.20;52.40
13458;DHT22;6801;53.018;11.560;2023-05-10T06:13:42;15.30;52.30
13458;DHT22;6801;53.018;11.560;2023-05-10T06:16:10;15.30;52.40
13458;DHT22;6801;53.018;11.560;2023-05-10T06:18:37;15.30;52.40
13458;DHT22;6801;53.018;11.560;2023-05-10T06:21:05;15.40;52.20
13458;DHT22;6801;53.018;11.560;2023-05-10T06:23:32;15.50;52.10
13458;DHT22;6801;53.018;11.560;2023-05-10T06:25:59;15.50;52.10
13458;DHT22;6801;53.018;11.560;2023-05-10T06:28:26;15.60;52.10
13458;DHT22;6801;53.018;11.560;2023-05-10T06:30:53;15.60;52.00
13458;DHT22;6801;53.018;11.560;2023-05-10T06:33:20;15.60;52.00
13458;DHT22;6801;53.018;11.560;2023-05-10T06:35:47;15.70;51.90
13458;DHT22;6801;53.018;11.560;2023-05-10T06:38:15;15.60;52.00
13458;DHT22;6801;53.018;11.560;2023-05-10T06:40:42;15.70;52.00
13458;DHT22;6801;53.018;11.560;2023-05-10T06:43:09;15.80;51.80
13458;DHT22;6801;53.018;11.560;2023-05-10T06:45:36;15.90;51.80
13458;DHT22;6801;53.018;11.560;2023-05-10T06:48:04;15.90;51.90
13458;DHT22;6801;53.018;11.560;2023-05-10T06:50:31;16.00;51.90
13458;DHT22;6801;53.018;11.560;2023-05-10T06:52:57;16.00;51.90
13458;DHT22;6801;53.018;11.560;2023-05-10T06:55:26;16.10;51.80
13458;DHT22;6801;53.018;11.560;2023-05-10T06:57:53;16.30;51.20
13458;DHT22;6801;53.018;11.560;2023-05-10T07:00:20;16.40;51.20
13458;DHT22;6801;53.018;11.560;2023-05-10T07:02:47;16.50;51.00
13458;DHT22;6801;53.018;11.560;2023-05-10T07:05:14;16.50;51.10
13458;DHT22;6801;53.018;11.560;2023-05-10T07:07:41;16.50;51.10
13458;DHT22;6801;53.018;11.560;2023-05-10T07:10:09;16.70;51.10
13458;DHT22;6801;53.018;11.560;2023-05-10T07:12:37;16.80;51.00
13458;DHT22;6801;53.018;11.560;2023-05-10T07:15:05;16.90;50.70
13458;DHT22;6801;53.018;11.560;2023-05-10T07:17:32;16.90;50.60
13458;DHT22;6801;53.018;11.560;2023-05-10T07:19:59;17.00;50.30
13458;DHT22;6801;53.018;11.560;2023-05-10T07:22:27;17.10;50.00
13458;DHT22;6801;53.018;11.560;2023-05-10T07:24:54;17.20;50.20
13458;DHT22;6801;53.018;11.560;2023-05-10T07:27:21;17.20;50.10
13458;DHT22;6801;53.018;11.560;2023-05-10T07:29:49;17.30;50.00
13458;DHT22;6801;53.018;11.560;2023-05-10T07:32:16;17.30;50.10
13458;DHT22;6801;53.018;11.560;2023-05-10T07:34:43;17.30;50.40
13458;DHT22;6801;53.018;11.560;2023-05-10T07:37:10;17.30;50.40
13458;DHT22;6801;53.018;11.560;2023-05-10T07:39:37;17.40;50.50
13458;DHT22;6801;53.018;11.560;2023-05-10T07:42:04;17.50;50.30
13458;DHT22;6801;53.018;11.560;2023-05-10T07:44:31;17.60;50.30
13458;DHT22;6801;53.018;11.560;2023-05-10T07:46:59;17.70;50.00
13458;DHT22;6801;53.018;11.560;2023-05-10T07:49:26;17.90;49.30
13458;DHT22;6801;53.018;11.560;2023-05-10T07:51:53;18.00;49.20
13458;DHT22;6801;53.018;11.560;2023-05-10T07:54:20;18.00;48.50
13458;DHT22;6801;53.018;11.560;2023-05-10T07:56:47;18.10;48.70
13458;DHT22;6801;53.018;11.560;2023-05-10T07:59:16;18.10;48.90
13458;DHT22;6801;53.018;11.560;2023-05-10T08:01:43;18.10;49.20
13458;DHT22;6801;53.018;11.560;2023-05-10T08:04:11;18.20;49.20
13458;DHT22;6801;53.018;11.560;2023-05-10T08:06:38;18.30;48.70
13458;DHT22;6801;53.018;11.560;2023-05-10T08:09:05;18.40;48.40
13458;DHT22;6801;53.018;11.560;2023-05-10T08:11:32;18.50;48.30
13458;DHT22;6801;53.018;11.560;2023-05-10T08:13:59;18.50;48.40
13458;DHT22;6801;53.018;11.560;2023-05-10T08:16:26;18.60;48.00
13458;DHT22;6801;53.018;11.560;2023-05-10T08:18:53;18.70;47.70
13458;DHT22;6801;53.018;11.560;2023-05-10T08:21:22;18.80;47.60
13458;DHT22;6801;53.018;11.560;2023-05-10T08:23:49;18.80;47.80
13458;DHT22;6801;53.018;11.560;2023-05-10T08:26:16;18.90;47.50
13458;DHT22;6801;53.018;11.560;2023-05-10T08:28:43;18.90;47.90
13458;DHT22;6801;53.018;11.560;2023-05-10T08:31:09;18.90;48.20
13458;DHT22;6801;53.018;11.560;2023-05-10T08:33:36;19.00;48.50
13458;DHT22;6801;53.018;11.560;2023-05-10T08:36:03;19.00;48.20
13458;DHT22;6801;53.018;11.560;2023-05-10T08:38:32;19.10;47.50
13458;DHT22;6801;53.018;11.560;2023-05-10T08:40:59;19.20;47.70
13458;DHT22;6801;53.018;11.560;2023-05-10T08:43:29;19.20;47.70
13458;DHT22;6801;53.018;11.560;2023-05-10T08:45:56;19.30;48.00
13458;DHT22;6801;53.018;11.560;2023-05-10T08:48:29;19.50;47.40
13458;DHT22;6801;53.018;11.560;2023-05-10T08:50:58;19.50;47.20
13458;DHT22;6801;53.018;11.560;2023-05-10T08:53:26;19.50;47.30
13458;DHT22;6801;53.018;11.560;2023-05-10T08:55:55;19.60;47.60
13458;DHT22;6801;53.018;11.560;2023-05-10T08:58:22;19.60;47.20
13458;DHT22;6801;53.018;11.560;2023-05-10T09:00:49;19.70;47.00
13458;DHT22;6801;53.018;11.560;2023-05-10T09:03:18;19.70;46.90
13458;DHT22;6801;53.018;11.560;2023-05-10T09:05:45;19.80;46.70
13458;DHT22;6801;53.018;11.560;2023-05-10T09:08:12;20.00;46.40
13458;DHT22;6801;53.018;11.560;2023-05-10T09:10:43;20.00;46.60
13458;DHT22;6801;53.018;11.560;2023-05-10T09:13:11;20.10;46.00
13458;DHT22;6801;53.018;11.560;2023-05-10T09:15:38;20.10;46.40
13458;DHT22;6801;53.018;11.560;2023-05-10T09:18:05;20.20;46.60
13458;DHT22;6801;53.018;11.560;2023-05-10T09:20:32;20.20;46.60
13458;DHT22;6801;53.018;11.560;2023-05-10T09:22:59;20.40;46.40
13458;DHT22;6801;53.018;11.560;2023-05-10T09:25:26;20.60;45.80
13458;DHT22;6801;53.018;11.560;2023-05-10T09:27:53;20.70;45.30
13458;DHT22;6801;53.018;11.560;2023-05-10T09:30:25;20.90;44.30
13458;DHT22;6801;53.018;11.560;2023-05-10T09:32:53;20.90;44.60
13458;DHT22;6801;53.018;11.560;2023-05-10T09:35:21;21.00;44.30
13458;DHT22;6801;53.018;11.560;2023-05-10T09:37:51;21.10;44.40
13458;DHT22;6801;53.018;11.560;2023-05-10T09:40:20;21.10;44.60
13458;DHT22;6801;53.018;11.560;2023-05-10T09:42:52;21.20;44.50
13458;DHT22;6801;53.018;11.560;2023-05-10T09:45:20;21.30;44.60
13458;DHT22;6801;53.018;11.560;2023-05-10T09:47:49;21.40;44.60
13458;DHT22;6801;53.018;11.560;2023-05-10T09:50:15;21.40;44.40
13458;DHT22;6801;53.018;11.560;2023-05-10T09:52:47;21.50;44.60
13458;DHT22;6801;53.018;11.560;2023-05-10T09:55:15;21.50;44.40
13458;DHT22;6801;53.018;11.560;2023-05-10T09:57:42;21.50;44.20
13458;DHT22;6801;53.018;11.560;2023-05-10T10:00:09;21.60;44.20
13458;DHT22;6801;53.018;11.560;2023-05-10T10:02:39;21.60;43.90
13458;DHT22;6801;53.018;11.560;2023-05-10T10:05:08;21.70;44.40
13458;DHT22;6801;53.018;11.560;2023-05-10T10:07:35;21.70;44.10
13458;DHT22;6801;53.018;11.560;2023-05-10T10:10:03;21.80;43.30
13458;DHT22;6801;53.018;11.560;2023-05-10T10:12:31;21.80;43.10
13458;DHT22;6801;53.018;11.560;2023-05-10T10:14:59;21.80;43.80
13458;DHT22;6801;53.018;11.560;2023-05-10T10:17:27;21.80;44.20
13458;DHT22;6801;53.018;11.560;2023-05-10T10:19:57;21.80;43.70
13458;DHT22;6801;53.018;11.560;2023-05-10T10:22:25;22.00;43.10
13458;DHT22;6801;53.018;11.560;2023-05-10T10:24:54;21.90;43.30
13458;DHT22;6801;53.018;11.560;2023-05-10T10:27:28;21.90;43.60
13458;DHT22;6801;53.018;11.560;2023-05-10T10:30:04;21.90;43.70
13458;DHT22;6801;53.018;11.560;2023-05-10T10:32:45;21.90;43.70
13458;DHT22;6801;53.018;11.560;2023-05-10T10:35:16;21.90;44.10
13458;DHT22;6801;53.018;11.560;2023-05-10T10:37:47;22.00;43.50
13458;DHT22;6801;53.018;11.560;2023-05-10T10:40:27;22.00;43.30
13458;DHT22;6801;53.018;11.560;2023-05-10T10:42:55;22.00;43.30
13458;DHT22;6801;53.018;11.560;2023-05-10T10:45:23;22.00;43.20
13458;DHT22;6801;53.018;11.560;2023-05-10T10:48:20;22.00;43.20
13458;DHT22;6801;53.018;11.560;2023-05-10T10:50:47;22.00;43.10
13458;DHT22;6801;53.018;11.560;2023-05-10T10:53:15;22.00;43.50
13458;DHT22;6801;53.018;11.560;2023-05-10T10:55:46;21.90;43.60
13458;DHT22;6801;53.018;11.560;2023-05-10T10:58:29;21.90;44.00
13458;DHT22;6801;53.018;11.560;2023-05-10T11:01:10;21.90;43.70
13458;DHT22;6801;53.018;11.560;2023-05-10T11:03:37;21.80;43.60
13458;DHT22;6801;53.018;11.560;2023-05-10T11:06:05;21.80;43.70
13458;DHT22;6801;53.018;11.560;2023-05-10T11:08:41;21.80;44.40
13458;DHT22;6801;53.018;11.560;2023-05-10T11:11:09;21.70;44.50
13458;DHT22;6801;53.018;11.560;2023-05-10T11:13:42;21.70;44.60
13458;DHT22;6801;53.018;11.560;2023-05-10T11:16:14;21.70;44.80
13458;DHT22;6801;53.018;11.560;2023-05-10T11:18:53;21.70;44.60
13458;DHT22;6801;53.018;11.560;2023-05-10T11:21:20;21.70;44.50
13458;DHT22;6801;53.018;11.560;2023-05-10T11:23:53;21.70;44.80
13458;DHT22;6801;53.018;11.560;2023-05-10T11:26:22;21.70;44.80
13458;DHT22;6801;53.018;11.560;2023-05-10T11:28:52;21.70;45.00
13458;DHT22;6801;53.018;11.560;2023-05-10T11:31:21;21.70;44.90
13458;DHT22;6801;53.018;11.560;2023-05-10T11:33:49;21.70;45.00
13458;DHT22;6801;53.018;11.560;2023-05-10T11:36:17;21.70;44.90
13458;DHT22;6801;53.018;11.560;2023-05-10T11:38:45;21.60;44.80
13458;DHT22;6801;53.018;11.560;2023-05-10T11:41:17;21.70;44.60
13458;DHT22;6801;53.018;11.560;2023-05-10T11:43:46;21.60;45.00
13458;DHT22;6801;53.018;11.560;2023-05-10T11:46:14;21.50;45.10
13458;DHT22;6801;53.018;11.560;2023-05-10T11:48:42;21.50;45.30
13458;DHT22;6801;53.018;11.560;2023-05-10T11:51:10;21.40;45.70
13458;DHT22;6801;53.018;11.560;2023-05-10T11:53:37;21.40;46.00
13458;DHT22;6801;53.018;11.560;2023-05-10T11:56:13;21.30;45.80
13458;DHT22;6801;53.018;11.560;2023-05-10T11:58:40;21.30;46.00
13458;DHT22;6801;53.018;11.560;2023-05-10T12:01:07;21.20;45.50
13458;DHT22;6801;53.018;11.560;2023-05-10T12:03:36;21.20;45.70
13458;DHT22;6801;53.018;11.560;2023-05-10T12:06:03;21.10;46.00
13458;DHT22;6801;53.018;11.560;2023-05-10T12:08:31;21.00;46.30
13458;DHT22;6801;53.018;11.560;2023-05-10T12:11:05;21.00;46.60
13458;DHT22;6801;53.018;11.560;2023-05-10T12:13:37;20.90;46.70
13458;DHT22;6801;53.018;11.560;2023-05-10T12:16:13;20.90;46.90
13458;DHT22;6801;53.018;11.560;2023-05-10T12:18:41;20.90;47.20
13458;DHT22;6801;53.018;11.560;2023-05-10T12:21:09;20.80;47.40
13458;DHT22;6801;53.018;11.560;2023-05-10T12:23:37;20.80;47.40
13458;DHT22;6801;53.018;11.560;2023-05-10T12:26:04;20.70;47.60
13458;DHT22;6801;53.018;11.560;2023-05-10T12:28:33;20.70;47.80
13458;DHT22;6801;53.018;11.560;2023-05-10T12:31:01;20.70;47.90
13458;DHT22;6801;53.018;11.560;2023-05-10T12:33:35;20.70;47.80
13458;DHT22;6801;53.018;11.560;2023-05-10T12:36:02;20.60;48.30
13458;DHT22;6801;53.018;11.560;2023-05-10T12:38:32;20.70;48.10
13458;DHT22;6801;53.018;11.560;2023-05-10T12:41:00;20.70;48.10
13458;DHT22;6801;53.018;11.560;2023-05-10T12:43:27;20.70;48.10
13458;DHT22;6801;53.018;11.560;2023-05-10T12:45:56;20.60;48.40
13458;DHT22;6801;53.018;11.560;2023-05-10T12:48:23;20.50;48.70
13458;DHT22;6801;53.018;11.560;2023-05-10T12:50:50;20.60;48.80
13458;DHT22;6801;53.018;11.560;2023-05-10T12:53:17;20.60;48.60
13458;DHT22;6801;53.018;11.560;2023-05-10T12:55:44;20.60;48.80
13458;DHT22;6801;53.018;11.560;2023-05-10T12:58:11;20.60;48.90
13458;DHT22;6801;53.018;11.560;2023-05-10T13:00:38;20.60;49.10
13458;DHT22;6801;53.018;11.560;2023-05-10T13:03:07;20.60;49.20
13458;DHT22;6801;53.018;11.560;2023-05-10T13:05:34;20.50;49.20
13458;DHT22;6801;53.018;11.560;2023-05-10T13:08:01;20.50;49.60
13458;DHT22;6801;53.018;11.560;2023-05-10T13:10:29;20.50;49.60
13458;DHT22;6801;53.018;11.560;2023-05-10T13:12:57;20.40;49.90
13458;DHT22;6801;53.018;11.560;2023-05-10T13:15:24;20.30;50.10
13458;DHT22;6801;53.018;11.560;2023-05-10T13:17:52;20.30;50.10
13458;DHT22;6801;53.018;11.560;2023-05-10T13:20:21;20.20;50.40
13458;DHT22;6801;53.018;11.560;2023-05-10T13:22:47;20.20;50.60
13458;DHT22;6801;53.018;11.560;2023-05-10T13:25:14;20.20;50.60
13458;DHT22;6801;53.018;11.560;2023-05-10T13:27:41;20.20;50.90
13458;DHT22;6801;53.018;11.560;2023-05-10T13:30:09;20.10;51.10
13458;DHT22;6801;53.018;11.560;2023-05-10T13:32:37;20.10;51.30
13458;DHT22;6801;53.018;11.560;2023-05-10T13:35:05;20.00;51.50
13458;DHT22;6801;53.018;11.560;2023-05-10T13:37:33;20.10;51.80
13458;DHT22;6801;53.018;11.560;2023-05-10T13:40:03;20.00;52.10
13458;DHT22;6801;53.018;11.560;2023-05-10T13:42:31;20.10;52.10
13458;DHT22;6801;53.018;11.560;2023-05-10T13:44:59;20.00;52.20
13458;DHT22;6801;53.018;11.560;2023-05-10T13:47:26;20.00;52.10
13458;DHT22;6801;53.018;11.560;2023-05-10T13:49:53;20.00;52.10
13458;DHT22;6801;53.018;11.560;2023-05-10T13:52:20;20.10;51.40
13458;DHT22;6801;53.018;11.560;2023-05-10T13:54:49;20.10;51.40
13458;DHT22;6801;53.018;11.560;2023-05-10T13:57:18;20.00;52.10
13458;DHT22;6801;53.018;11.560;2023-05-10T13:59:45;20.10;52.10
13458;DHT22;6801;53.018;11.560;2023-05-10T14:02:11;20.10;51.50
13458;DHT22;6801;53.018;11.560;2023-05-10T14:04:38;20.10;52.20
13458;DHT22;6801;53.018;11.560;2023-05-10T14:07:05;20.10;52.30
13458;DHT22;6801;53.018;11.560;2023-05-10T14:09:32;20.10;52.60
13458;DHT22;6801;53.018;11.560;2023-05-10T14:12:00;20.10;53.80
13458;DHT22;6801;53.018;11.560;2023-05-10T14:14:27;20.10;54.30
13458;DHT22;6801;53.018;11.560;2023-05-10T14:16:55;20.00;54.50
13458;DHT22;6801;53.018;11.560;2023-05-10T14:19:22;20.00;54.30
13458;DHT22;6801;53.018;11.560;2023-05-10T14:21:49;20.00;54.70
13458;DHT22;6801;53.018;11.560;2023-05-10T14:24:17;20.00;55.30
13458;DHT22;6801;53.018;11.560;2023-05-10T14:26:44;20.00;55.40
13458;DHT22;6801;53.018;11.560;2023-05-10T14:29:13;20.00;55.10
13458;DHT22;6801;53.018;11.560;2023-05-10T14:31:40;20.00;55.00
13458;DHT22;6801;53.018;11.560;2023-05-10T14:34:07;20.00;55.20
13458;DHT22;6801;53.018;11.560;2023-05-10T14:36:34;19.90;56.00
13458;DHT22;6801;53.018;11.560;2023-05-10T14:39:01;20.00;56.00
13458;DHT22;6801;53.018;11.560;2023-05-10T14:41:28;19.90;55.80
13458;DHT22;6801;53.018;11.560;2023-05-10T14:43:56;19.90;56.20
13458;DHT22;6801;53.018;11.560;2023-05-10T14:46:24;19.90;56.70
13458;DHT22;6801;53.018;11.560;2023-05-10T14:48:52;19.90;56.30
13458;DHT22;6801;53.018;11.560;2023-05-10T14:51:18;19.90;55.80
13458;DHT22;6801;53.018;11.560;2023-05-10T14:53:47;19.90;56.10
13458;DHT22;6801;53.018;11.560;2023-05-10T14:56:14;19.90;55.00
13458;DHT22;6801;53.018;11.560;2023-05-10T14:58:41;19.90;54.20
13458;DHT22;6801;53.018;11.560;2023-05-10T15:01:08;19.90;54.80
13458;DHT22;6801;53.018;11.560;2023-05-10T15:03:36;19.80;56.40
13458;DHT22;6801;53.018;11.560;2023-05-10T15:06:04;19.80;57.50
13458;DHT22;6801;53.018;11.560;2023-05-10T15:08:31;19.70;57.10
13458;DHT22;6801;53.018;11.560;2023-05-10T15:10:58;19.70;56.50
13458;DHT22;6801;53.018;11.560;2023-05-10T15:13:25;19.70;56.10
13458;DHT22;6801;53.018;11.560;2023-05-10T15:15:52;19.70;57.50
13458;DHT22;6801;53.018;11.560;2023-05-10T15:18:19;19.70;57.60
13458;DHT22;6801;53.018;11.560;2023-05-10T15:20:47;19.60;57.90
13458;DHT22;6801;53.018;11.560;2023-05-10T15:23:14;19.70;58.20
13458;DHT22;6801;53.018;11.560;2023-05-10T15:25:41;19.60;58.40
13458;DHT22;6801;53.018;11.560;2023-05-10T15:28:08;19.60;58.10
13458;DHT22;6801;53.018;11.560;2023-05-10T15:30:35;19.60;58.40
13458;DHT22;6801;53.018;11.560;2023-05-10T15:33:02;19.60;58.00
13458;DHT22;6801;53.018;11.560;2023-05-10T15:35:28;19.50;57.80
13458;DHT22;6801;53.018;11.560;2023-05-10T15:37:57;19.60;57.40